M/V Steilacoom II — WDD5115 — position and weather

sailwx.info

Track history (hours):
 
Tides and Currents Weather Stations Pressure Air Temp Water Temp Dewpoint Dewpoint Depression Visibility Wind Speed Wind Dir Waves Ship Positions

M/V Steilacoom II

Owner: Pierce County Public Works & Utilities, RALEIGH, NC. More information available from US FCC via Universal Licensing System and Coast Guard Vessel Documentation Center.

Last reported at 2017-Oct-22 17:46 UTC. Time now 2017-Oct-22 19:09 UTC.
Position N 47°11' W 122°37'.

MMSI: 367153930.

Date/timePositionNaut miles runAvg speedWind from/ knotsBaromVisibWave heightAir tempDewpointWater temp
2017-Oct-22 17:46N 47°11' W 122°37'2 5.7
2017-Oct-22 17:20N 47°11' W 122°40'2 3.5
2017-Oct-22 16:42N 47°11' W 122°37'2 5.7
2017-Oct-22 16:18N 47°11' W 122°40'310.3
2017-Oct-22 16:00N 47°10' W 122°36'3 4.4
2017-Oct-22 15:19N 47°11' W 122°41'3 5.3
2017-Oct-22 14:46N 47°11' W 122°36'3 5.4
2017-Oct-22 14:15N 47°11' W 122°40'2 8.5
2017-Oct-22 14:00N 47°10' W 122°38'1 0.2
2017-Oct-22 06:02N 47°11' W 122°36'0 5.8
2017-Oct-22 06:00N 47°11' W 122°36'3 4.3
2017-Oct-22 05:19N 47°11' W 122°41'3 9.4
2017-Oct-22 05:00N 47°11' W 122°36'0 0.3
2017-Oct-22 04:30N 47°11' W 122°36'2 3.6
2017-Oct-22 04:00N 47°11' W 122°39'1 1.6
2017-Oct-22 03:30N 47°11' W 122°38'0 0.2
2017-Oct-22 03:00N 47°11' W 122°38'1 1.9
2017-Oct-22 02:30N 47°10' W 122°38'2 4.4
2017-Oct-22 02:00N 47°11' W 122°41'3 4.3
2017-Oct-22 01:18N 47°11' W 122°36'3 9.8
2017-Oct-22 01:00N 47°11' W 122°40'3 5.7
2017-Oct-22 00:30N 47°11' W 122°36'1 2.2
2017-Oct-22 00:00N 47°11' W 122°38'1 1.5
2017-Oct-21 23:30N 47°11' W 122°39'1 1.7
2017-Oct-21 23:00N 47°11' W 122°38'1 1.3
2017-Oct-21 22:30N 47°11' W 122°39'1 1.3
2017-Oct-21 22:00N 47°11' W 122°38'1 1.5
2017-Oct-21 21:30N 47°11' W 122°39'2 1.0
2017-Oct-21 19:49N 47°11' W 122°36'3 5.5
2017-Oct-21 19:17N 47°11' W 122°40'3 1.9
2017-Oct-21 17:46N 47°11' W 122°36'3 5.4
2017-Oct-21 17:16N 47°11' W 122°40'310.6
2017-Oct-21 17:00N 47°10' W 122°36'3 5.9
2017-Oct-21 16:30N 47°11' W 122°40'3 4.0
2017-Oct-21 15:47N 47°10' W 122°36'310.8
2017-Oct-21 15:30N 47°11' W 122°40'3 4.0
2017-Oct-21 14:47N 47°11' W 122°36'3 3.5
2017-Oct-21 14:00N 47°11' W 122°40'2 4.9
2017-Oct-21 13:30N 47°11' W 122°37'2 5.0
2017-Oct-21 13:00N 47°11' W 122°40'3 0.4
2017-Oct-21 06:05N 47°10' W 122°36'0 4.9
2017-Oct-21 06:00N 47°11' W 122°36'3 4.3
2017-Oct-21 05:21N 47°11' W 122°41'3 8.5
2017-Oct-21 05:00N 47°11' W 122°36'1 2.4
2017-Oct-21 04:30N 47°11' W 122°38'0 0.7
2017-Oct-21 04:00N 47°11' W 122°38'1 2.4
2017-Oct-21 03:30N 47°11' W 122°39'2 3.3
2017-Oct-21 03:00N 47°11' W 122°37'1 2.2
2017-Oct-21 02:30N 47°10' W 122°38'2 4.1
2017-Oct-21 02:00N 47°11' W 122°40'3 3.8
2017-Oct-21 01:16N 47°11' W 122°36'3 7.0
2017-Oct-21 00:52N 47°11' W 122°41'3 4.5
2017-Oct-21 00:12N 47°11' W 122°36'211.2
2017-Oct-21 00:00N 47°11' W 122°39'2 3.5
2017-Oct-20 23:30N 47°11' W 122°37'2 3.6
2017-Oct-20 23:00N 47°11' W 122°40'2 3.9
2017-Oct-20 22:30N 47°11' W 122°37'1 2.9
2017-Oct-20 22:00N 47°11' W 122°39'0 0.7
2017-Oct-20 21:30N 47°11' W 122°38'1 1.0
2017-Oct-20 20:11N 47°11' W 122°36'1 7.8
2017-Oct-20 20:00N 47°10' W 122°38'2 2.7
2017-Oct-20 19:17N 47°11' W 122°40'3 2.3
2017-Oct-20 18:06N 47°11' W 122°36'0 0.4
2017-Oct-20 17:14N 47°10' W 122°36'0 0.0
2017-Oct-20 16:53N 47°10' W 122°36'0 0.0
2017-Oct-20 16:30N 47°10' W 122°36'0 0.0
2017-Oct-20 11:31N 47°10' W 122°36'0 0.0
2017-Oct-20 11:30N 47°10' W 122°36'0 0.0
2017-Oct-20 11:00N 47°10' W 122°36'0 0.0
2017-Oct-20 10:30N 47°10' W 122°36'0 0.0
2017-Oct-20 09:58N 47°10' W 122°36'0 0.0
2017-Oct-20 08:08N 47°10' W 122°36'0 0.3
2017-Oct-20 08:00N 47°10' W 122°36'0 0.1
2017-Oct-20 07:30N 47°10' W 122°36'0 0.0
2017-Oct-20 07:00N 47°10' W 122°36'0 0.0
2017-Oct-20 06:30N 47°10' W 122°36'0 0.0
2017-Oct-20 06:00N 47°10' W 122°36'0 0.0
2017-Oct-20 05:30N 47°10' W 122°36'0 0.0
2017-Oct-19 22:17N 47°10' W 122°36'0 0.0
2017-Oct-19 21:57N 47°10' W 122°36'0 0.0
2017-Oct-19 21:30N 47°10' W 122°36'0 0.0
2017-Oct-19 21:00N 47°10' W 122°36'0 0.0
2017-Oct-19 20:29N 47°10' W 122°36'0 0.0
2017-Oct-19 19:02N 47°10' W 122°36'0 0.1
2017-Oct-19 18:59N 47°10' W 122°36'0 0.0
2017-Oct-19 18:13N 47°10' W 122°36'0 0.1
2017-Oct-19 17:56N 47°10' W 122°36'0 0.0
2017-Oct-19 16:06N 47°10' W 122°36'0 0.0
2017-Oct-19 15:58N 47°10' W 122°36'0 0.0
2017-Oct-19 11:34N 47°10' W 122°36'0 0.0
2017-Oct-19 11:21N 47°10' W 122°36'0 0.0
2017-Oct-19 10:59N 47°10' W 122°36'0 0.0
2017-Oct-19 10:15N 47°10' W 122°36'0 0.0
2017-Oct-19 09:51N 47°10' W 122°36'0 0.0
2017-Oct-19 09:30N 47°10' W 122°36'0 0.0
2017-Oct-19 08:05N 47°10' W 122°36'0 0.0
2017-Oct-19 07:43N 47°10' W 122°36'0 0.0
2017-Oct-19 06:01N 47°10' W 122°36'0 0.0
2017-Oct-18 14:59N 47°10' W 122°36'0 0.0
2017-Oct-18 10:47N 47°10' W 122°36'0 0.0
2017-Oct-18 08:42N 47°10' W 122°36'0 0.0
2017-Oct-18 08:24N 47°10' W 122°36'0 0.0
2017-Oct-18 05:51N 47°10' W 122°36'0 0.0
2017-Oct-17 21:52N 47°10' W 122°36'0 0.0
2017-Oct-17 20:08N 47°10' W 122°36'0 0.0
2017-Oct-17 19:59N 47°10' W 122°36'0 0.0
2017-Oct-17 19:22N 47°10' W 122°36'0 0.0
2017-Oct-17 18:52N 47°10' W 122°36'0 0.0
2017-Oct-17 17:54N 47°10' W 122°36'0 0.0
2017-Oct-17 17:28N 47°10' W 122°36'0 0.0
2017-Oct-17 17:00N 47°10' W 122°36'0 0.0
2017-Oct-17 09:39N 47°10' W 122°36'0 0.0
2017-Oct-17 09:18N 47°10' W 122°36'0 0.0
2017-Oct-17 08:57N 47°10' W 122°36'0 0.0
2017-Oct-17 08:24N 47°10' W 122°36'0 0.0
2017-Oct-17 05:51N 47°10' W 122°36'0 0.0
2017-Oct-17 05:30N 47°10' W 122°36'0 0.0
2017-Oct-17 05:00N 47°10' W 122°36'0 0.0
2017-Oct-17 04:27N 47°10' W 122°36'0 0.0
2017-Oct-16 21:16N 47°10' W 122°36'0 0.0
2017-Oct-16 17:01N 47°10' W 122°36'0 0.0
2017-Oct-16 17:00N 47°10' W 122°36'0 0.0
2017-Oct-16 11:22N 47°10' W 122°36'0 0.0
2017-Oct-16 09:49N 47°10' W 122°36'0 0.0
2017-Oct-16 09:30N 47°10' W 122°36'0 0.0
2017-Oct-16 08:54N 47°10' W 122°36'0 0.0
2017-Oct-16 01:11N 47°10' W 122°36'0 0.0
2017-Oct-16 01:00N 47°10' W 122°36'0 0.0
2017-Oct-15 14:56N 47°10' W 122°36'0 0.0
2017-Oct-15 13:28N 47°10' W 122°36'0 0.0
2017-Oct-15 13:00N 47°10' W 122°36'0 0.0
2017-Oct-15 11:15N 47°10' W 122°36'0 0.0
2017-Oct-15 10:53N 47°10' W 122°36'0 0.0
2017-Oct-15 10:27N 47°10' W 122°36'0 0.0
2017-Oct-15 10:00N 47°10' W 122°36'0 0.0
2017-Oct-15 08:51N 47°10' W 122°36'0 0.0
2017-Oct-15 08:29N 47°10' W 122°36'0 0.0
2017-Oct-15 08:00N 47°10' W 122°36'0 0.0
2017-Oct-15 07:28N 47°10' W 122°36'0 0.0
2017-Oct-15 07:00N 47°10' W 122°36'0 0.0
2017-Oct-15 06:30N 47°10' W 122°36'0 0.0
2017-Oct-14 21:05N 47°10' W 122°36'0 0.0
2017-Oct-14 20:58N 47°10' W 122°36'0 0.0
2017-Oct-14 20:30N 47°10' W 122°36'0 0.0
2017-Oct-14 20:00N 47°10' W 122°36'0 0.0
2017-Oct-14 19:30N 47°10' W 122°36'0 0.0
2017-Oct-14 18:25N 47°10' W 122°36'0 0.0
2017-Oct-14 15:20N 47°10' W 122°36'0 0.0
2017-Oct-14 13:40N 47°10' W 122°36'0 0.0
2017-Oct-14 12:41N 47°10' W 122°36'0 0.0
2017-Oct-14 12:26N 47°10' W 122°36'0 0.0
2017-Oct-14 10:59N 47°10' W 122°36'0 0.0
2017-Oct-14 10:28N 47°10' W 122°36'0 0.0
2017-Oct-14 08:29N 47°10' W 122°36'0 0.0
2017-Oct-14 07:37N 47°10' W 122°36'0 0.0
2017-Oct-13 22:14N 47°10' W 122°36'0 0.0
2017-Oct-13 20:32N 47°10' W 122°36'0 0.1
2017-Oct-13 19:08N 47°11' W 122°36'0 3.3
2017-Oct-13 19:00N 47°10' W 122°37'0 0.1
2017-Oct-13 12:31N 47°10' W 122°36'0 0.5
2017-Oct-13 12:30N 47°10' W 122°36'0 0.1
2017-Oct-13 12:00N 47°10' W 122°36'0 0.0
2017-Oct-13 06:50N 47°10' W 122°36'0 0.0
2017-Oct-13 05:35N 47°10' W 122°36'0 0.0
2017-Oct-13 05:05N 47°10' W 122°36'0 0.0
2017-Oct-13 04:39N 47°10' W 122°36'0 0.0
2017-Oct-13 04:22N 47°10' W 122°36'0 0.0
2017-Oct-13 03:57N 47°10' W 122°36'0 0.0
2017-Oct-12 23:05N 47°10' W 122°36'0 0.0
2017-Oct-12 22:49N 47°10' W 122°36'  
Track history (hours):
 
Tides and Currents Weather Stations Pressure Air Temp Water Temp Dewpoint Dewpoint Depression Visibility Wind Speed Wind Dir Waves Ship Positions

M/V Steilacoom II

Owner: Pierce County Public Works & Utilities, RALEIGH, NC. More information available from US FCC via Universal Licensing System and Coast Guard Vessel Documentation Center.

Last reported at 2017-Oct-22 17:46 UTC. Time now 2017-Oct-22 19:09 UTC.
Position N 47°11' W 122°37'.

MMSI: 367153930.

Date/timePositionNaut miles runAvg speedWind from/ knotsBaromVisibWave heightAir tempDewpointWater temp
2017-Oct-22 17:46N 47°11' W 122°37'2 5.7
2017-Oct-22 17:20N 47°11' W 122°40'2 3.5
2017-Oct-22 16:42N 47°11' W 122°37'2 5.7
2017-Oct-22 16:18N 47°11' W 122°40'310.3
2017-Oct-22 16:00N 47°10' W 122°36'3 4.4
2017-Oct-22 15:19N 47°11' W 122°41'3 5.3
2017-Oct-22 14:46N 47°11' W 122°36'3 5.4
2017-Oct-22 14:15N 47°11' W 122°40'2 8.5
2017-Oct-22 14:00N 47°10' W 122°38'1 0.2
2017-Oct-22 06:02N 47°11' W 122°36'0 5.8
2017-Oct-22 06:00N 47°11' W 122°36'3 4.3
2017-Oct-22 05:19N 47°11' W 122°41'3 9.4
2017-Oct-22 05:00N 47°11' W 122°36'0 0.3
2017-Oct-22 04:30N 47°11' W 122°36'2 3.6
2017-Oct-22 04:00N 47°11' W 122°39'1 1.6
2017-Oct-22 03:30N 47°11' W 122°38'0 0.2
2017-Oct-22 03:00N 47°11' W 122°38'1 1.9
2017-Oct-22 02:30N 47°10' W 122°38'2 4.4
2017-Oct-22 02:00N 47°11' W 122°41'3 4.3
2017-Oct-22 01:18N 47°11' W 122°36'3 9.8
2017-Oct-22 01:00N 47°11' W 122°40'3 5.7
2017-Oct-22 00:30N 47°11' W 122°36'1 2.2
2017-Oct-22 00:00N 47°11' W 122°38'1 1.5
2017-Oct-21 23:30N 47°11' W 122°39'1 1.7
2017-Oct-21 23:00N 47°11' W 122°38'1 1.3
2017-Oct-21 22:30N 47°11' W 122°39'1 1.3
2017-Oct-21 22:00N 47°11' W 122°38'1 1.5
2017-Oct-21 21:30N 47°11' W 122°39'2 1.0
2017-Oct-21 19:49N 47°11' W 122°36'3 5.5
2017-Oct-21 19:17N 47°11' W 122°40'3 1.9
2017-Oct-21 17:46N 47°11' W 122°36'3 5.4
2017-Oct-21 17:16N 47°11' W 122°40'310.6
2017-Oct-21 17:00N 47°10' W 122°36'3 5.9
2017-Oct-21 16:30N 47°11' W 122°40'3 4.0
2017-Oct-21 15:47N 47°10' W 122°36'310.8
2017-Oct-21 15:30N 47°11' W 122°40'3 4.0
2017-Oct-21 14:47N 47°11' W 122°36'3 3.5
2017-Oct-21 14:00N 47°11' W 122°40'2 4.9
2017-Oct-21 13:30N 47°11' W 122°37'2 5.0
2017-Oct-21 13:00N 47°11' W 122°40'3 0.4
2017-Oct-21 06:05N 47°10' W 122°36'0 4.9
2017-Oct-21 06:00N 47°11' W 122°36'3 4.3
2017-Oct-21 05:21N 47°11' W 122°41'3 8.5
2017-Oct-21 05:00N 47°11' W 122°36'1 2.4
2017-Oct-21 04:30N 47°11' W 122°38'0 0.7
2017-Oct-21 04:00N 47°11' W 122°38'1 2.4
2017-Oct-21 03:30N 47°11' W 122°39'2 3.3
2017-Oct-21 03:00N 47°11' W 122°37'1 2.2
2017-Oct-21 02:30N 47°10' W 122°38'2 4.1
2017-Oct-21 02:00N 47°11' W 122°40'3 3.8
2017-Oct-21 01:16N 47°11' W 122°36'3 7.0
2017-Oct-21 00:52N 47°11' W 122°41'3 4.5
2017-Oct-21 00:12N 47°11' W 122°36'211.2
2017-Oct-21 00:00N 47°11' W 122°39'2 3.5
2017-Oct-20 23:30N 47°11' W 122°37'2 3.6
2017-Oct-20 23:00N 47°11' W 122°40'2 3.9
2017-Oct-20 22:30N 47°11' W 122°37'1 2.9
2017-Oct-20 22:00N 47°11' W 122°39'0 0.7
2017-Oct-20 21:30N 47°11' W 122°38'1 1.0
2017-Oct-20 20:11N 47°11' W 122°36'1 7.8
2017-Oct-20 20:00N 47°10' W 122°38'2 2.7
2017-Oct-20 19:17N 47°11' W 122°40'3 2.3
2017-Oct-20 18:06N 47°11' W 122°36'0 0.4
2017-Oct-20 17:14N 47°10' W 122°36'0 0.0
2017-Oct-20 16:53N 47°10' W 122°36'0 0.0
2017-Oct-20 16:30N 47°10' W 122°36'0 0.0
2017-Oct-20 11:31N 47°10' W 122°36'0 0.0
2017-Oct-20 11:30N 47°10' W 122°36'0 0.0
2017-Oct-20 11:00N 47°10' W 122°36'0 0.0
2017-Oct-20 10:30N 47°10' W 122°36'0 0.0
2017-Oct-20 09:58N 47°10' W 122°36'0 0.0
2017-Oct-20 08:08N 47°10' W 122°36'0 0.3
2017-Oct-20 08:00N 47°10' W 122°36'0 0.1
2017-Oct-20 07:30N 47°10' W 122°36'0 0.0
2017-Oct-20 07:00N 47°10' W 122°36'0 0.0
2017-Oct-20 06:30N 47°10' W 122°36'0 0.0
2017-Oct-20 06:00N 47°10' W 122°36'0 0.0
2017-Oct-20 05:30N 47°10' W 122°36'0 0.0
2017-Oct-19 22:17N 47°10' W 122°36'0 0.0
2017-Oct-19 21:57N 47°10' W 122°36'0 0.0
2017-Oct-19 21:30N 47°10' W 122°36'0 0.0
2017-Oct-19 21:00N 47°10' W 122°36'0 0.0
2017-Oct-19 20:29N 47°10' W 122°36'0 0.0
2017-Oct-19 19:02N 47°10' W 122°36'0 0.1
2017-Oct-19 18:59N 47°10' W 122°36'0 0.0
2017-Oct-19 18:13N 47°10' W 122°36'0 0.1
2017-Oct-19 17:56N 47°10' W 122°36'0 0.0
2017-Oct-19 16:06N 47°10' W 122°36'0 0.0
2017-Oct-19 15:58N 47°10' W 122°36'0 0.0
2017-Oct-19 11:34N 47°10' W 122°36'0 0.0
2017-Oct-19 11:21N 47°10' W 122°36'0 0.0
2017-Oct-19 10:59N 47°10' W 122°36'0 0.0
2017-Oct-19 10:15N 47°10' W 122°36'0 0.0
2017-Oct-19 09:51N 47°10' W 122°36'0 0.0
2017-Oct-19 09:30N 47°10' W 122°36'0 0.0
2017-Oct-19 08:05N 47°10' W 122°36'0 0.0
2017-Oct-19 07:43N 47°10' W 122°36'0 0.0
2017-Oct-19 06:01N 47°10' W 122°36'0 0.0
2017-Oct-18 14:59N 47°10' W 122°36'0 0.0
2017-Oct-18 10:47N 47°10' W 122°36'0 0.0
2017-Oct-18 08:42N 47°10' W 122°36'0 0.0
2017-Oct-18 08:24N 47°10' W 122°36'0 0.0
2017-Oct-18 05:51N 47°10' W 122°36'0 0.0
2017-Oct-17 21:52N 47°10' W 122°36'0 0.0
2017-Oct-17 20:08N 47°10' W 122°36'0 0.0
2017-Oct-17 19:59N 47°10' W 122°36'0 0.0
2017-Oct-17 19:22N 47°10' W 122°36'0 0.0
2017-Oct-17 18:52N 47°10' W 122°36'0 0.0
2017-Oct-17 17:54N 47°10' W 122°36'0 0.0
2017-Oct-17 17:28N 47°10' W 122°36'0 0.0
2017-Oct-17 17:00N 47°10' W 122°36'0 0.0
2017-Oct-17 09:39N 47°10' W 122°36'0 0.0
2017-Oct-17 09:18N 47°10' W 122°36'0 0.0
2017-Oct-17 08:57N 47°10' W 122°36'0 0.0
2017-Oct-17 08:24N 47°10' W 122°36'0 0.0
2017-Oct-17 05:51N 47°10' W 122°36'0 0.0
2017-Oct-17 05:30N 47°10' W 122°36'0 0.0
2017-Oct-17 05:00N 47°10' W 122°36'0 0.0
2017-Oct-17 04:27N 47°10' W 122°36'0 0.0
2017-Oct-16 21:16N 47°10' W 122°36'0 0.0
2017-Oct-16 17:01N 47°10' W 122°36'0 0.0
2017-Oct-16 17:00N 47°10' W 122°36'0 0.0
2017-Oct-16 11:22N 47°10' W 122°36'0 0.0
2017-Oct-16 09:49N 47°10' W 122°36'0 0.0
2017-Oct-16 09:30N 47°10' W 122°36'0 0.0
2017-Oct-16 08:54N 47°10' W 122°36'0 0.0
2017-Oct-16 01:11N 47°10' W 122°36'0 0.0
2017-Oct-16 01:00N 47°10' W 122°36'0 0.0
2017-Oct-15 14:56N 47°10' W 122°36'0 0.0
2017-Oct-15 13:28N 47°10' W 122°36'0 0.0
2017-Oct-15 13:00N 47°10' W 122°36'0 0.0
2017-Oct-15 11:15N 47°10' W 122°36'0 0.0
2017-Oct-15 10:53N 47°10' W 122°36'0 0.0
2017-Oct-15 10:27N 47°10' W 122°36'0 0.0
2017-Oct-15 10:00N 47°10' W 122°36'0 0.0
2017-Oct-15 08:51N 47°10' W 122°36'0 0.0
2017-Oct-15 08:29N 47°10' W 122°36'0 0.0
2017-Oct-15 08:00N 47°10' W 122°36'0 0.0
2017-Oct-15 07:28N 47°10' W 122°36'0 0.0
2017-Oct-15 07:00N 47°10' W 122°36'0 0.0
2017-Oct-15 06:30N 47°10' W 122°36'0 0.0
2017-Oct-14 21:05N 47°10' W 122°36'0 0.0
2017-Oct-14 20:58N 47°10' W 122°36'0 0.0
2017-Oct-14 20:30N 47°10' W 122°36'0 0.0
2017-Oct-14 20:00N 47°10' W 122°36'0 0.0
2017-Oct-14 19:30N 47°10' W 122°36'0 0.0
2017-Oct-14 18:25N 47°10' W 122°36'0 0.0
2017-Oct-14 15:20N 47°10' W 122°36'0 0.0
2017-Oct-14 13:40N 47°10' W 122°36'0 0.0
2017-Oct-14 12:41N 47°10' W 122°36'0 0.0
2017-Oct-14 12:26N 47°10' W 122°36'0 0.0
2017-Oct-14 10:59N 47°10' W 122°36'0 0.0
2017-Oct-14 10:28N 47°10' W 122°36'0 0.0
2017-Oct-14 08:29N 47°10' W 122°36'0 0.0
2017-Oct-14 07:37N 47°10' W 122°36'0 0.0
2017-Oct-13 22:14N 47°10' W 122°36'0 0.0
2017-Oct-13 20:32N 47°10' W 122°36'0 0.1
2017-Oct-13 19:08N 47°11' W 122°36'0 3.3
2017-Oct-13 19:00N 47°10' W 122°37'0 0.1
2017-Oct-13 12:31N 47°10' W 122°36'0 0.5
2017-Oct-13 12:30N 47°10' W 122°36'0 0.1
2017-Oct-13 12:00N 47°10' W 122°36'0 0.0
2017-Oct-13 06:50N 47°10' W 122°36'0 0.0
2017-Oct-13 05:35N 47°10' W 122°36'0 0.0
2017-Oct-13 05:05N 47°10' W 122°36'0 0.0
2017-Oct-13 04:39N 47°10' W 122°36'0 0.0
2017-Oct-13 04:22N 47°10' W 122°36'0 0.0
2017-Oct-13 03:57N 47°10' W 122°36'0 0.0
2017-Oct-12 23:05N 47°10' W 122°36'0 0.0
2017-Oct-12 22:49N 47°10' W 122°36'  

Dump ship's entire track history